sensor_id;sensor_type;location;lat;lon;timestamp;pressure;altitude;pressure_sealevel;temperature;humidity
6599;BME280;3335;43.198;27.918;2022-11-20T00:01:16;151356.81;;;16.45;100.00
6599;BME280;3335;43.198;27.918;2022-11-20T00:03:44;151336.75;;;16.37;100.00
6599;BME280;3335;43.198;27.918;2022-11-20T00:06:13;151340.53;;;16.38;100.00
6599;BME280;3335;43.198;27.918;2022-11-20T00:08:41;151335.50;;;16.36;100.00
6599;BME280;3335;43.198;27.918;2022-11-20T00:11:10;151333.00;;;16.35;100.00
6599;BME280;3335;43.198;27.918;2022-11-20T00:13:37;151330.50;;;16.34;100.00
6599;BME280;3335;43.198;27.918;2022-11-20T00:16:06;151325.47;;;16.32;100.00
6599;BME280;3335;43.198;27.918;2022-11-20T00:18:35;151295.41;;;16.20;100.00
6599;BME280;3335;43.198;27.918;2022-11-20T00:21:03;151312.94;;;16.27;100.00
6599;BME280;3335;43.198;27.918;2022-11-20T00:23:30;151317.97;;;16.29;100.00
6599;BME280;3335;43.198;27.918;2022-11-20T00:26:00;151312.94;;;16.27;100.00
6599;BME280;3335;43.198;27.918;2022-11-20T00:28:27;151252.72;;;16.03;100.00
6599;BME280;3335;43.198;27.918;2022-11-20T00:31:00;151311.66;;;16.27;100.00
6599;BME280;3335;43.198;27.918;2022-11-20T00:33:27;151302.91;;;16.23;100.00
6599;BME280;3335;43.198;27.918;2022-11-20T00:36:00;151300.38;;;16.22;100.00
6599;BME280;3335;43.198;27.918;2022-11-20T00:38:27;151315.44;;;16.28;100.00
6599;BME280;3335;43.198;27.918;2022-11-20T00:40:56;151300.38;;;16.22;100.00
6599;BME280;3335;43.198;27.918;2022-11-20T00:43:23;151295.41;;;16.20;100.00
6599;BME280;3335;43.198;27.918;2022-11-20T00:45:50;151297.88;;;16.21;100.00
6599;BME280;3335;43.198;27.918;2022-11-20T00:48:17;151320.44;;;16.30;100.00
6599;BME280;3335;43.198;27.918;2022-11-20T00:50:44;151328.00;;;16.33;100.00
6599;BME280;3335;43.198;27.918;2022-11-20T00:53:12;151335.50;;;16.36;100.00
6599;BME280;3335;43.198;27.918;2022-11-20T00:55:39;151282.84;;;16.15;100.00
6599;BME280;3335;43.198;27.918;2022-11-20T00:58:06;151343.06;;;16.39;100.00
6599;BME280;3335;43.198;27.918;2022-11-20T01:00:33;151350.56;;;16.42;100.00
6599;BME280;3335;43.198;27.918;2022-11-20T01:03:00;151368.09;;;16.49;100.00
6599;BME280;3335;43.198;27.918;2022-11-20T01:05:27;151373.16;;;16.51;100.00
6599;BME280;3335;43.198;27.918;2022-11-20T01:07:54;151385.69;;;16.56;100.00
6599;BME280;3335;43.198;27.918;2022-11-20T01:10:22;151420.88;;;16.71;100.00
6599;BME280;3335;43.198;27.918;2022-11-20T01:12:49;151449.72;;;16.82;100.00
6599;BME280;3335;43.198;27.918;2022-11-20T01:15:36;151496.19;;;17.01;100.00
6599;BME280;3335;43.198;27.918;2022-11-20T01:18:03;151511.22;;;17.07;100.00
6599;BME280;3335;43.198;27.918;2022-11-20T01:20:34;151531.31;;;17.15;100.00
6599;BME280;3335;43.198;27.918;2022-11-20T01:23:01;151453.50;;;16.84;100.00
6599;BME280;3335;43.198;27.918;2022-11-20T01:25:29;151466.03;;;16.89;100.00
6599;BME280;3335;43.198;27.918;2022-11-20T01:27:56;151481.09;;;16.95;100.00
6599;BME280;3335;43.198;27.918;2022-11-20T01:30:23;151482.38;;;16.95;100.00
6599;BME280;3335;43.198;27.918;2022-11-20T01:32:50;151486.09;;;16.97;100.00
6599;BME280;3335;43.198;27.918;2022-11-20T01:35:17;151476.06;;;16.93;100.00
6599;BME280;3335;43.198;27.918;2022-11-20T01:37:44;151481.09;;;16.95;100.00
6599;BME280;3335;43.198;27.918;2022-11-20T01:40:11;151440.94;;;16.79;100.00
6599;BME280;3335;43.198;27.918;2022-11-20T01:42:45;151355.56;;;16.44;100.00
6599;BME280;3335;43.198;27.918;2022-11-20T01:45:58;151523.75;;;17.12;100.00
6599;BME280;3335;43.198;27.918;2022-11-20T01:48:30;151541.34;;;17.19;100.00
6599;BME280;3335;43.198;27.918;2022-11-20T01:50:59;151543.84;;;17.20;100.00
6599;BME280;3335;43.198;27.918;2022-11-20T01:53:31;151558.91;;;17.26;100.00
6599;BME280;3335;43.198;27.918;2022-11-20T01:56:00;151568.94;;;17.30;100.00
6599;BME280;3335;43.198;27.918;2022-11-20T01:58:32;151599.09;;;17.42;100.00
6599;BME280;3335;43.198;27.918;2022-11-20T02:01:00;151601.63;;;17.43;100.00
6599;BME280;3335;43.198;27.918;2022-11-20T02:03:27;151636.78;;;17.58;100.00
6599;BME280;3335;43.198;27.918;2022-11-20T02:05:59;151687.00;;;17.78;100.00
6599;BME280;3335;43.198;27.918;2022-11-20T02:08:29;151712.13;;;17.88;100.00
6599;BME280;3335;43.198;27.918;2022-11-20T02:10:56;151731.00;;;17.96;100.00
6599;BME280;3335;43.198;27.918;2022-11-20T02:13:23;151732.25;;;17.96;100.00
6599;BME280;3335;43.198;27.918;2022-11-20T02:16:15;151719.69;;;17.91;100.00
6599;BME280;3335;43.198;27.918;2022-11-20T02:18:43;151707.13;;;17.86;100.00
6599;BME280;3335;43.198;27.918;2022-11-20T02:21:17;151689.53;;;17.79;100.00
6599;BME280;3335;43.198;27.918;2022-11-20T02:23:59;151697.03;;;17.82;100.00
6599;BME280;3335;43.198;27.918;2022-11-20T02:26:28;151694.56;;;17.81;100.00
6599;BME280;3335;43.198;27.918;2022-11-20T02:28:58;151670.72;;;17.71;100.00
6599;BME280;3335;43.198;27.918;2022-11-20T02:31:25;151661.88;;;17.68;100.00
6599;BME280;3335;43.198;27.918;2022-11-20T02:33:55;151651.84;;;17.64;100.00
6599;BME280;3335;43.198;27.918;2022-11-20T02:36:24;151674.44;;;17.73;100.00
6599;BME280;3335;43.198;27.918;2022-11-20T02:38:53;151666.94;;;17.70;100.00
6599;BME280;3335;43.198;27.918;2022-11-20T02:41:22;151648.13;;;17.62;100.00
6599;BME280;3335;43.198;27.918;2022-11-20T02:43:56;151673.22;;;17.72;100.00
6599;BME280;3335;43.198;27.918;2022-11-20T02:46:23;151682.00;;;17.76;100.00
6599;BME280;3335;43.198;27.918;2022-11-20T02:48:50;151679.50;;;17.75;100.00
6599;BME280;3335;43.198;27.918;2022-11-20T02:51:17;151685.75;;;17.77;100.00
6599;BME280;3335;43.198;27.918;2022-11-20T02:53:44;151698.31;;;17.82;100.00
6599;BME280;3335;43.198;27.918;2022-11-20T02:56:11;151708.38;;;17.86;100.00
6599;BME280;3335;43.198;27.918;2022-11-20T02:58:39;151734.72;;;17.97;100.00
6599;BME280;3335;43.198;27.918;2022-11-20T03:01:06;151724.69;;;17.93;100.00
6599;BME280;3335;43.198;27.918;2022-11-20T03:03:33;151749.81;;;18.03;100.00
6599;BME280;3335;43.198;27.918;2022-11-20T03:06:00;151729.72;;;17.95;100.00
6599;BME280;3335;43.198;27.918;2022-11-20T03:08:27;151714.66;;;17.89;100.00
6599;BME280;3335;43.198;27.918;2022-11-20T03:10:54;151654.38;;;17.65;100.00
6599;BME280;3335;43.198;27.918;2022-11-20T03:13:21;151709.59;;;17.87;100.00
6599;BME280;3335;43.198;27.918;2022-11-20T03:15:49;151727.19;;;17.94;100.00
6599;BME280;3335;43.198;27.918;2022-11-20T03:18:16;151739.75;;;17.99;100.00
6599;BME280;3335;43.198;27.918;2022-11-20T03:20:43;151744.75;;;18.01;100.00
6599;BME280;3335;43.198;27.918;2022-11-20T03:23:10;151752.31;;;18.04;100.00
6599;BME280;3335;43.198;27.918;2022-11-20T03:25:37;151732.25;;;17.96;100.00
6599;BME280;3335;43.198;27.918;2022-11-20T03:28:04;151769.88;;;18.11;100.00
6599;BME280;3335;43.198;27.918;2022-11-20T03:30:31;151797.53;;;18.22;100.00
6599;BME280;3335;43.198;27.918;2022-11-20T03:32:59;151734.72;;;17.97;100.00
6599;BME280;3335;43.198;27.918;2022-11-20T03:35:26;151699.56;;;17.83;100.00
6599;BME280;3335;43.198;27.918;2022-11-20T03:37:53;151860.34;;;18.48;100.00
6599;BME280;3335;43.198;27.918;2022-11-20T03:40:20;151851.53;;;18.44;100.00
6599;BME280;3335;43.198;27.918;2022-11-20T03:42:47;151849.06;;;18.43;100.00
6599;BME280;3335;43.198;27.918;2022-11-20T03:45:15;151854.03;;;18.45;100.00
6599;BME280;3335;43.198;27.918;2022-11-20T03:47:43;151891.78;;;18.60;100.00
6599;BME280;3335;43.198;27.918;2022-11-20T03:50:12;151883.00;;;18.57;100.00
6599;BME280;3335;43.198;27.918;2022-11-20T03:52:40;151883.00;;;18.57;100.00
6599;BME280;3335;43.198;27.918;2022-11-20T03:55:07;151889.28;;;18.59;100.00
6599;BME280;3335;43.198;27.918;2022-11-20T03:57:34;151699.56;;;17.83;100.00
6599;BME280;3335;43.198;27.918;2022-11-20T04:00:02;151895.59;;;18.62;100.00
6599;BME280;3335;43.198;27.918;2022-11-20T04:02:29;151908.16;;;18.67;100.00
6599;BME280;3335;43.198;27.918;2022-11-20T04:04:56;151928.22;;;18.75;100.00
6599;BME280;3335;43.198;27.918;2022-11-20T04:07:24;151895.59;;;18.62;100.00
6599;BME280;3335;43.198;27.918;2022-11-20T04:09:51;151935.75;;;18.78;100.00
6599;BME280;3335;43.198;27.918;2022-11-20T04:12:18;151752.31;;;18.04;100.00
6599;BME280;3335;43.198;27.918;2022-11-20T04:14:45;151950.84;;;18.84;100.00
6599;BME280;3335;43.198;27.918;2022-11-20T04:17:12;151955.91;;;18.86;100.00
6599;BME280;3335;43.198;27.918;2022-11-20T04:19:39;151965.94;;;18.90;100.00
6599;BME280;3335;43.198;27.918;2022-11-20T04:22:06;151965.94;;;18.90;100.00
6599;BME280;3335;43.198;27.918;2022-11-20T04:24:34;151954.63;;;18.86;100.00
6599;BME280;3335;43.198;27.918;2022-11-20T04:27:01;151963.41;;;18.89;100.00
6599;BME280;3335;43.198;27.918;2022-11-20T04:29:27;151983.50;;;18.97;100.00
6599;BME280;3335;43.198;27.918;2022-11-20T04:31:54;152004.88;;;19.06;100.00
6599;BME280;3335;43.198;27.918;2022-11-20T04:34:21;152022.47;;;19.13;100.00
6599;BME280;3335;43.198;27.918;2022-11-20T04:36:48;152008.66;;;19.07;100.00
6599;BME280;3335;43.198;27.918;2022-11-20T04:39:15;152007.38;;;19.07;100.00
6599;BME280;3335;43.198;27.918;2022-11-20T04:41:44;152003.66;;;19.05;100.00
6599;BME280;3335;43.198;27.918;2022-11-20T04:44:10;152013.69;;;19.09;100.00
6599;BME280;3335;43.198;27.918;2022-11-20T04:46:39;151913.13;;;18.69;100.00
6599;BME280;3335;43.198;27.918;2022-11-20T04:49:07;152021.22;;;19.12;100.00
6599;BME280;3335;43.198;27.918;2022-11-20T04:51:34;151993.56;;;19.01;100.00
6599;BME280;3335;43.198;27.918;2022-11-20T04:54:01;152023.75;;;19.13;100.00
6599;BME280;3335;43.198;27.918;2022-11-20T04:56:28;152016.16;;;19.10;100.00
6599;BME280;3335;43.198;27.918;2022-11-20T04:59:00;152027.47;;;19.15;100.00
6599;BME280;3335;43.198;27.918;2022-11-20T05:01:27;151999.88;;;19.04;100.00
6599;BME280;3335;43.198;27.918;2022-11-20T05:03:54;152011.16;;;19.08;100.00
6599;BME280;3335;43.198;27.918;2022-11-20T05:06:21;152008.66;;;19.07;100.00
6599;BME280;3335;43.198;27.918;2022-11-20T05:08:48;151944.59;;;18.82;100.00
6599;BME280;3335;43.198;27.918;2022-11-20T05:11:17;151998.59;;;19.03;100.00
6599;BME280;3335;43.198;27.918;2022-11-20T05:13:44;151999.88;;;19.04;100.00
6599;BME280;3335;43.198;27.918;2022-11-20T05:16:13;151968.47;;;18.91;100.00
6599;BME280;3335;43.198;27.918;2022-11-20T05:18:41;151963.41;;;18.89;100.00
6599;BME280;3335;43.198;27.918;2022-11-20T05:21:09;151913.13;;;18.69;100.00
6599;BME280;3335;43.198;27.918;2022-11-20T05:23:36;151885.53;;;18.58;100.00
6599;BME280;3335;43.198;27.918;2022-11-20T05:26:04;151788.75;;;18.19;100.00
6599;BME280;3335;43.198;27.918;2022-11-20T05:28:32;151938.28;;;18.79;100.00
6599;BME280;3335;43.198;27.918;2022-11-20T05:31:04;151963.41;;;18.89;100.00
6599;BME280;3335;43.198;27.918;2022-11-20T05:33:34;151984.75;;;18.98;100.00
6599;BME280;3335;43.198;27.918;2022-11-20T05:36:01;151984.75;;;18.98;100.00
6599;BME280;3335;43.198;27.918;2022-11-20T05:38:28;151980.97;;;18.96;100.00
6599;BME280;3335;43.198;27.918;2022-11-20T05:41:03;151948.31;;;18.83;100.00
6599;BME280;3335;43.198;27.918;2022-11-20T05:43:32;151975.97;;;18.94;100.00
6599;BME280;3335;43.198;27.918;2022-11-20T05:45:59;151980.97;;;18.96;100.00
6599;BME280;3335;43.198;27.918;2022-11-20T05:48:25;151948.31;;;18.83;100.00
6599;BME280;3335;43.198;27.918;2022-11-20T05:50:54;151933.22;;;18.77;100.00
6599;BME280;3335;43.198;27.918;2022-11-20T05:53:21;151923.19;;;18.73;100.00
6599;BME280;3335;43.198;27.918;2022-11-20T05:55:56;151929.50;;;18.75;100.00
6599;BME280;3335;43.198;27.918;2022-11-20T05:58:23;151908.16;;;18.67;100.00
6599;BME280;3335;43.198;27.918;2022-11-20T06:00:50;151762.38;;;18.08;100.00
6599;BME280;3335;43.198;27.918;2022-11-20T06:03:17;151925.72;;;18.74;100.00
6599;BME280;3335;43.198;27.918;2022-11-20T06:05:44;151959.63;;;18.88;100.00
6599;BME280;3335;43.198;27.918;2022-11-20T06:08:12;151980.97;;;18.96;100.00
6599;BME280;3335;43.198;27.918;2022-11-20T06:10:39;151988.56;;;18.99;100.00
6599;BME280;3335;43.198;27.918;2022-11-20T06:13:06;151991.06;;;19.00;100.00
6599;BME280;3335;43.198;27.918;2022-11-20T06:15:33;151991.06;;;19.00;100.00
6599;BME280;3335;43.198;27.918;2022-11-20T06:18:00;151983.50;;;18.97;100.00
6599;BME280;3335;43.198;27.918;2022-11-20T06:20:26;151970.94;;;18.92;100.00
6599;BME280;3335;43.198;27.918;2022-11-20T06:22:53;151986.03;;;18.98;100.00
6599;BME280;3335;43.198;27.918;2022-11-20T06:25:22;152001.13;;;19.04;100.00
6599;BME280;3335;43.198;27.918;2022-11-20T06:27:48;152018.69;;;19.11;100.00
6599;BME280;3335;43.198;27.918;2022-11-20T06:30:15;152023.75;;;19.13;100.00
6599;BME280;3335;43.198;27.918;2022-11-20T06:32:42;152030.00;;;19.16;100.00
6599;BME280;3335;43.198;27.918;2022-11-20T06:35:10;152043.84;;;19.21;100.00
6599;BME280;3335;43.198;27.918;2022-11-20T06:37:36;152031.25;;;19.16;100.00
6599;BME280;3335;43.198;27.918;2022-11-20T06:40:04;152028.75;;;19.15;100.00
6599;BME280;3335;43.198;27.918;2022-11-20T06:42:33;152031.25;;;19.16;100.00
6599;BME280;3335;43.198;27.918;2022-11-20T06:45:00;152041.31;;;19.20;100.00
6599;BME280;3335;43.198;27.918;2022-11-20T06:47:27;152061.47;;;19.29;100.00
6599;BME280;3335;43.198;27.918;2022-11-20T06:49:54;152071.50;;;19.33;100.00
6599;BME280;3335;43.198;27.918;2022-11-20T06:52:21;152086.56;;;19.39;100.00
6599;BME280;3335;43.198;27.918;2022-11-20T06:54:48;152100.44;;;19.44;100.00
6599;BME280;3335;43.198;27.918;2022-11-20T06:57:15;152101.69;;;19.45;100.00
6599;BME280;3335;43.198;27.918;2022-11-20T06:59:43;152101.69;;;19.45;100.00
6599;BME280;3335;43.198;27.918;2022-11-20T07:02:10;152121.84;;;19.53;100.00
6599;BME280;3335;43.198;27.918;2022-11-20T07:04:38;152141.94;;;19.61;100.00
6599;BME280;3335;43.198;27.918;2022-11-20T07:07:05;152184.66;;;19.78;100.00
6599;BME280;3335;43.198;27.918;2022-11-20T07:09:32;152222.41;;;19.93;100.00
6599;BME280;3335;43.198;27.918;2022-11-20T07:11:59;152224.94;;;19.94;100.00
6599;BME280;3335;43.198;27.918;2022-11-20T07:14:26;152242.50;;;20.01;100.00
6599;BME280;3335;43.198;27.918;2022-11-20T07:16:54;152209.81;;;19.88;100.00
6599;BME280;3335;43.198;27.918;2022-11-20T07:19:21;152252.56;;;20.05;100.00
6599;BME280;3335;43.198;27.918;2022-11-20T07:21:48;152242.50;;;20.01;100.00
6599;BME280;3335;43.198;27.918;2022-11-20T07:24:15;152232.47;;;19.97;100.00
6599;BME280;3335;43.198;27.918;2022-11-20T07:26:42;152273.97;;;20.14;100.00
6599;BME280;3335;43.198;27.918;2022-11-20T07:29:08;152153.25;;;19.65;100.00
6599;BME280;3335;43.198;27.918;2022-11-20T07:31:35;152285.31;;;20.19;100.00
6599;BME280;3335;43.198;27.918;2022-11-20T07:34:04;152275.25;;;20.15;100.00
6599;BME280;3335;43.198;27.918;2022-11-20T07:36:30;152287.78;;;20.20;100.00
6599;BME280;3335;43.198;27.918;2022-11-20T07:38:57;152304.16;;;20.26;100.00
6599;BME280;3335;43.198;27.918;2022-11-20T07:41:24;152316.78;;;20.31;100.00
6599;BME280;3335;43.198;27.918;2022-11-20T07:43:51;152311.66;;;20.29;100.00
6599;BME280;3335;43.198;27.918;2022-11-20T07:46:18;152328.09;;;20.36;100.00
6599;BME280;3335;43.198;27.918;2022-11-20T07:48:45;152302.88;;;20.26;100.00
6599;BME280;3335;43.198;27.918;2022-11-20T07:51:13;152325.56;;;20.35;100.00
6599;BME280;3335;43.198;27.918;2022-11-20T07:53:40;152335.63;;;20.39;100.00
6599;BME280;3335;43.198;27.918;2022-11-20T07:56:07;152340.66;;;20.41;100.00
6599;BME280;3335;43.198;27.918;2022-11-20T07:58:34;152348.19;;;20.44;100.00
6599;BME280;3335;43.198;27.918;2022-11-20T08:01:06;152126.84;;;19.55;100.00
6599;BME280;3335;43.198;27.918;2022-11-20T08:03:33;152350.72;;;20.45;100.00
6599;BME280;3335;43.198;27.918;2022-11-20T08:06:00;152377.16;;;20.56;100.00
6599;BME280;3335;43.198;27.918;2022-11-20T08:08:29;152370.84;;;20.53;100.00
6599;BME280;3335;43.198;27.918;2022-11-20T08:10:56;152393.53;;;20.62;100.00
6599;BME280;3335;43.198;27.918;2022-11-20T08:13:43;152363.31;;;20.50;100.00
6599;BME280;3335;43.198;27.918;2022-11-20T08:16:28;152393.53;;;20.62;100.00
6599;BME280;3335;43.198;27.918;2022-11-20T08:18:55;152411.13;;;20.69;100.00
6599;BME280;3335;43.198;27.918;2022-11-20T08:21:22;152408.59;;;20.68;100.00
6599;BME280;3335;43.198;27.918;2022-11-20T08:23:50;152378.41;;;20.56;100.00
6599;BME280;3335;43.198;27.918;2022-11-20T08:26:17;152416.16;;;20.71;100.00
6599;BME280;3335;43.198;27.918;2022-11-20T08:28:44;152418.66;;;20.72;100.00
6599;BME280;3335;43.198;27.918;2022-11-20T08:31:12;152328.09;;;20.36;100.00
6599;BME280;3335;43.198;27.918;2022-11-20T08:33:39;152438.81;;;20.80;100.00
6599;BME280;3335;43.198;27.918;2022-11-20T08:36:06;152394.75;;;20.63;100.00
6599;BME280;3335;43.198;27.918;2022-11-20T08:38:33;152401.06;;;20.65;100.00
6599;BME280;3335;43.198;27.918;2022-11-20T08:41:03;152432.50;;;20.78;100.00
6599;BME280;3335;43.198;27.918;2022-11-20T08:43:48;152443.81;;;20.82;100.00
6599;BME280;3335;43.198;27.918;2022-11-20T08:46:15;152461.44;;;20.89;100.00
6599;BME280;3335;43.198;27.918;2022-11-20T08:48:42;152468.97;;;20.92;100.00
6599;BME280;3335;43.198;27.918;2022-11-20T08:51:09;152457.66;;;20.88;100.00
6599;BME280;3335;43.198;27.918;2022-11-20T08:53:36;152466.47;;;20.91;100.00
6599;BME280;3335;43.198;27.918;2022-11-20T08:56:05;152468.97;;;20.92;100.00
6599;BME280;3335;43.198;27.918;2022-11-20T08:58:32;152468.97;;;20.92;100.00
6599;BME280;3335;43.198;27.918;2022-11-20T09:00:59;152455.13;;;20.87;100.00
6599;BME280;3335;43.198;27.918;2022-11-20T09:03:26;152476.50;;;20.95;100.00
6599;BME280;3335;43.198;27.918;2022-11-20T09:05:57;152485.38;;;20.99;100.00
6599;BME280;3335;43.198;27.918;2022-11-20T09:08:24;152476.50;;;20.95;100.00
6599;BME280;3335;43.198;27.918;2022-11-20T09:10:51;152476.50;;;20.95;100.00
6599;BME280;3335;43.198;27.918;2022-11-20T09:13:20;152466.47;;;20.91;100.00
6599;BME280;3335;43.198;27.918;2022-11-20T09:15:47;152465.19;;;20.91;100.00
6599;BME280;3335;43.198;27.918;2022-11-20T09:18:14;152468.97;;;20.92;100.00
6599;BME280;3335;43.198;27.918;2022-11-20T09:20:40;152455.13;;;20.87;100.00
6599;BME280;3335;43.198;27.918;2022-11-20T09:23:07;152440.06;;;20.81;100.00
6599;BME280;3335;43.198;27.918;2022-11-20T09:25:34;152457.66;;;20.88;100.00
6599;BME280;3335;43.198;27.918;2022-11-20T09:28:01;152451.41;;;20.85;100.00
6599;BME280;3335;43.198;27.918;2022-11-20T09:30:30;152463.97;;;20.90;100.00
6599;BME280;3335;43.198;27.918;2022-11-20T09:32:57;152461.44;;;20.89;100.00
6599;BME280;3335;43.198;27.918;2022-11-20T09:35:24;152413.63;;;20.70;100.00
6599;BME280;3335;43.198;27.918;2022-11-20T09:37:51;152453.88;;;20.86;100.00
6599;BME280;3335;43.198;27.918;2022-11-20T09:40:20;152458.94;;;20.88;100.00
6599;BME280;3335;43.198;27.918;2022-11-20T09:42:54;152466.47;;;20.91;100.00
6599;BME280;3335;43.198;27.918;2022-11-20T09:45:28;152477.78;;;20.96;100.00
6599;BME280;3335;43.198;27.918;2022-11-20T09:48:10;152494.16;;;21.03;100.00
6599;BME280;3335;43.198;27.918;2022-11-20T09:50:43;152491.63;;;21.02;100.00
6599;BME280;3335;43.198;27.918;2022-11-20T09:53:18;152486.63;;;21.00;100.00
6599;BME280;3335;43.198;27.918;2022-11-20T09:55:48;152482.84;;;20.98;100.00
6599;BME280;3335;43.198;27.918;2022-11-20T09:58:21;152499.22;;;21.05;100.00
6599;BME280;3335;43.198;27.918;2022-11-20T10:00:52;152502.97;;;21.06;100.00
6599;BME280;3335;43.198;27.918;2022-11-20T10:03:34;152475.31;;;20.95;100.00
6599;BME280;3335;43.198;27.918;2022-11-20T10:06:07;152499.22;;;21.05;100.00
6599;BME280;3335;43.198;27.918;2022-11-20T10:08:43;152514.28;;;21.11;100.00
6599;BME280;3335;43.198;27.918;2022-11-20T10:11:16;152514.28;;;21.11;100.00
6599;BME280;3335;43.198;27.918;2022-11-20T10:13:50;152525.66;;;21.15;100.00
6599;BME280;3335;43.198;27.918;2022-11-20T10:16:32;152492.91;;;21.02;100.00
6599;BME280;3335;43.198;27.918;2022-11-20T10:19:16;152524.38;;;21.15;100.00
6599;BME280;3335;43.198;27.918;2022-11-20T10:21:59;152533.22;;;21.18;100.00
6599;BME280;3335;43.198;27.918;2022-11-20T10:24:43;152504.22;;;21.07;100.00
6599;BME280;3335;43.198;27.918;2022-11-20T10:27:26;152514.28;;;21.11;100.00
6599;BME280;3335;43.198;27.918;2022-11-20T10:30:01;152534.50;;;21.19;100.00
6599;BME280;3335;43.198;27.918;2022-11-20T10:32:33;152519.34;;;21.13;100.00
6599;BME280;3335;43.198;27.918;2022-11-20T10:35:09;152521.91;;;21.14;100.00
6599;BME280;3335;43.198;27.918;2022-11-20T10:37:43;152535.72;;;21.19;100.00
6599;BME280;3335;43.198;27.918;2022-11-20T10:40:20;152554.63;;;21.27;100.00
6599;BME280;3335;43.198;27.918;2022-11-20T10:42:51;152547.09;;;21.24;100.00
6599;BME280;3335;43.198;27.918;2022-11-20T10:45:31;152536.97;;;21.20;100.00
6599;BME280;3335;43.198;27.918;2022-11-20T10:48:10;152549.56;;;21.25;100.00
6599;BME280;3335;43.198;27.918;2022-11-20T10:50:47;152540.75;;;21.21;100.00
6599;BME280;3335;43.198;27.918;2022-11-20T10:53:26;152526.91;;;21.16;100.00
6599;BME280;3335;43.198;27.918;2022-11-20T10:56:02;152510.53;;;21.09;100.00
6599;BME280;3335;43.198;27.918;2022-11-20T10:58:36;152534.50;;;21.19;100.00
6599;BME280;3335;43.198;27.918;2022-11-20T11:01:14;152543.28;;;21.22;100.00
6599;BME280;3335;43.198;27.918;2022-11-20T11:03:42;152533.22;;;21.18;100.00
6599;BME280;3335;43.198;27.918;2022-11-20T11:06:19;152468.97;;;20.92;100.00
6599;BME280;3335;43.198;27.918;2022-11-20T11:08:49;152526.91;;;21.16;100.00
6599;BME280;3335;43.198;27.918;2022-11-20T11:11:21;152514.28;;;21.11;100.00
6599;BME280;3335;43.198;27.918;2022-11-20T11:13:49;152519.34;;;21.13;100.00
6599;BME280;3335;43.198;27.918;2022-11-20T11:16:20;152514.28;;;21.11;100.00
6599;BME280;3335;43.198;27.918;2022-11-20T11:18:48;152516.81;;;21.12;100.00
6599;BME280;3335;43.198;27.918;2022-11-20T11:21:22;152535.72;;;21.19;100.00
6599;BME280;3335;43.198;27.918;2022-11-20T11:23:58;152525.66;;;21.15;100.00
6599;BME280;3335;43.198;27.918;2022-11-20T11:26:26;152535.72;;;21.19;100.00
6599;BME280;3335;43.198;27.918;2022-11-20T11:28:55;152536.97;;;21.20;100.00
6599;BME280;3335;43.198;27.918;2022-11-20T11:31:23;152525.66;;;21.15;100.00
6599;BME280;3335;43.198;27.918;2022-11-20T11:33:50;152523.16;;;21.14;100.00
6599;BME280;3335;43.198;27.918;2022-11-20T11:36:21;152529.44;;;21.17;100.00
6599;BME280;3335;43.198;27.918;2022-11-20T11:38:51;152519.34;;;21.13;100.00
6599;BME280;3335;43.198;27.918;2022-11-20T11:41:21;152516.81;;;21.12;100.00
6599;BME280;3335;43.198;27.918;2022-11-20T11:43:54;152520.66;;;21.13;100.00
6599;BME280;3335;43.198;27.918;2022-11-20T11:46:40;152535.72;;;21.19;100.00
6599;BME280;3335;43.198;27.918;2022-11-20T11:49:17;152544.56;;;21.23;100.00
6599;BME280;3335;43.198;27.918;2022-11-20T11:51:59;152536.97;;;21.20;100.00
6599;BME280;3335;43.198;27.918;2022-11-20T11:54:34;152529.44;;;21.17;100.00
6599;BME280;3335;43.198;27.918;2022-11-20T11:57:07;152521.91;;;21.14;100.00
6599;BME280;3335;43.198;27.918;2022-11-20T11:59:46;152438.81;;;20.80;100.00
6599;BME280;3335;43.198;27.918;2022-11-20T12:02:29;152540.75;;;21.21;100.00
6599;BME280;3335;43.198;27.918;2022-11-20T12:05:00;152534.50;;;21.19;100.00
6599;BME280;3335;43.198;27.918;2022-11-20T12:07:38;152536.97;;;21.20;100.00
6599;BME280;3335;43.198;27.918;2022-11-20T12:10:15;152530.69;;;21.17;100.00
6599;BME280;3335;43.198;27.918;2022-11-20T12:12:48;152520.66;;;21.13;100.00
6599;BME280;3335;43.198;27.918;2022-11-20T12:15:24;152513.00;;;21.10;100.00
6599;BME280;3335;43.198;27.918;2022-11-20T12:17:52;152497.94;;;21.04;100.00
6599;BME280;3335;43.198;27.918;2022-11-20T12:20:21;152451.41;;;20.85;100.00
6599;BME280;3335;43.198;27.918;2022-11-20T12:22:56;152506.75;;;21.08;100.00
6599;BME280;3335;43.198;27.918;2022-11-20T12:25:28;152496.69;;;21.04;100.00
6599;BME280;3335;43.198;27.918;2022-11-20T12:28:16;152484.09;;;20.99;100.00
6599;BME280;3335;43.198;27.918;2022-11-20T12:30:55;152487.88;;;21.00;100.00
6599;BME280;3335;43.198;27.918;2022-11-20T12:33:49;152486.63;;;21.00;100.00
6599;BME280;3335;43.198;27.918;2022-11-20T12:36:28;152474.03;;;20.94;100.00
6599;BME280;3335;43.198;27.918;2022-11-20T12:39:11;152486.63;;;21.00;100.00
6599;BME280;3335;43.198;27.918;2022-11-20T12:45:10;152463.97;;;20.90;100.00
6599;BME280;3335;43.198;27.918;2022-11-20T12:47:56;152458.94;;;20.88;100.00
6599;BME280;3335;43.198;27.918;2022-11-20T12:50:36;152462.72;;;20.90;100.00
6599;BME280;3335;43.198;27.918;2022-11-20T12:53:05;152453.88;;;20.86;100.00
6599;BME280;3335;43.198;27.918;2022-11-20T12:55:46;152461.44;;;20.89;100.00
6599;BME280;3335;43.198;27.918;2022-11-20T12:58:24;152461.44;;;20.89;100.00
6599;BME280;3335;43.198;27.918;2022-11-20T13:00:56;152438.81;;;20.80;100.00
6599;BME280;3335;43.198;27.918;2022-11-20T13:03:37;152466.47;;;20.91;100.00
6599;BME280;3335;43.198;27.918;2022-11-20T13:06:13;152451.41;;;20.85;100.00
6599;BME280;3335;43.198;27.918;2022-11-20T13:08:42;152445.06;;;20.83;100.00